createdAt,value
2018-05-31T00:01:04.591Z,15.90
2018-05-31T00:03:34.012Z,15.90
2018-05-31T00:06:04.190Z,15.90
2018-05-31T00:08:33.598Z,15.90
2018-05-31T00:11:02.598Z,15.90
2018-05-31T00:13:31.996Z,16.00
2018-05-31T00:16:01.242Z,15.90
2018-05-31T00:18:29.849Z,15.90
2018-05-31T00:20:58.491Z,15.80
2018-05-31T00:23:28.074Z,15.80
2018-05-31T00:25:56.890Z,15.70
2018-05-31T00:28:25.705Z,15.80
2018-05-31T00:30:54.500Z,15.80
2018-05-31T00:33:23.748Z,15.80
2018-05-31T00:35:53.048Z,15.90
2018-05-31T00:38:22.470Z,15.90
2018-05-31T00:40:51.095Z,16.00
2018-05-31T00:43:19.895Z,16.00
2018-05-31T00:45:48.705Z,16.00
2018-05-31T00:48:17.255Z,16.00
2018-05-31T00:50:46.042Z,16.00
2018-05-31T00:53:14.883Z,16.00
2018-05-31T00:56:02.175Z,16.00
2018-05-31T00:58:31.151Z,16.00
2018-05-31T01:00:59.732Z,15.90
2018-05-31T01:03:29.407Z,15.50
2018-05-31T01:05:58.312Z,15.50
2018-05-31T01:08:27.133Z,15.50
2018-05-31T01:10:55.894Z,15.40
2018-05-31T01:13:25.654Z,15.50
2018-05-31T01:15:54.473Z,15.40
2018-05-31T01:18:23.427Z,15.50
2018-05-31T01:20:52.361Z,15.50
2018-05-31T01:23:23.044Z,15.50
2018-05-31T01:25:53.356Z,15.40
2018-05-31T01:28:22.208Z,15.40
2018-05-31T01:30:51.016Z,15.40
2018-05-31T01:33:19.928Z,15.40
2018-05-31T01:35:48.628Z,15.40
2018-05-31T01:38:32.588Z,15.50
2018-05-31T01:41:02.125Z,15.50
2018-05-31T01:43:31.561Z,15.40
2018-05-31T01:46:00.240Z,15.40
2018-05-31T01:48:28.987Z,15.40
2018-05-31T01:50:59.143Z,15.50
2018-05-31T01:53:28.609Z,15.50
2018-05-31T01:55:58.191Z,15.50
2018-05-31T01:58:28.159Z,15.50
2018-05-31T02:00:56.928Z,15.50
2018-05-31T02:03:26.474Z,15.50
2018-05-31T02:05:55.928Z,15.50
2018-05-31T02:08:25.608Z,15.50
2018-05-31T02:10:55.101Z,15.50
2018-05-31T02:13:23.817Z,15.40
2018-05-31T02:15:52.822Z,15.50
2018-05-31T02:18:21.571Z,15.40
2018-05-31T02:20:50.341Z,15.40
2018-05-31T02:23:19.150Z,15.30
2018-05-31T02:25:48.699Z,15.30
2018-05-31T02:28:18.292Z,15.10
2018-05-31T02:30:46.933Z,15.10
2018-05-31T02:33:15.708Z,15.10
2018-05-31T02:35:44.260Z,15.10
2018-05-31T02:38:13.653Z,15.10
2018-05-31T02:40:43.134Z,15.00
2018-05-31T02:43:12.469Z,14.90
2018-05-31T02:45:41.801Z,14.90
2018-05-31T02:48:10.381Z,14.90
2018-05-31T02:50:39.739Z,14.80
2018-05-31T02:53:08.531Z,14.70
2018-05-31T02:55:37.369Z,14.70
2018-05-31T02:58:06.380Z,14.70
2018-05-31T03:00:35.068Z,14.70
2018-05-31T03:03:03.639Z,14.70
2018-05-31T03:05:33.120Z,14.60
2018-05-31T03:08:02.344Z,14.60
2018-05-31T03:10:31.659Z,14.60
2018-05-31T03:13:00.665Z,14.70
2018-05-31T03:15:29.479Z,14.70
2018-05-31T03:17:58.301Z,14.80
2018-05-31T03:20:27.689Z,14.80
2018-05-31T03:22:56.263Z,14.90
2018-05-31T03:25:25.136Z,14.90
2018-05-31T03:27:54.052Z,14.90
2018-05-31T03:30:22.751Z,14.90
2018-05-31T03:32:52.748Z,14.90
2018-05-31T03:35:22.227Z,14.80
2018-05-31T03:37:51.235Z,14.80
2018-05-31T03:40:20.847Z,14.80
2018-05-31T03:42:49.905Z,14.70
2018-05-31T03:45:18.659Z,14.70
2018-05-31T03:47:47.256Z,14.70
2018-05-31T03:50:15.900Z,14.70
2018-05-31T03:52:44.601Z,14.60
2018-05-31T03:55:13.404Z,14.50
2018-05-31T03:57:42.138Z,14.50
2018-05-31T04:00:10.839Z,14.50
2018-05-31T04:02:39.649Z,14.50
2018-05-31T04:05:08.651Z,14.50
2018-05-31T04:07:37.215Z,14.40
2018-05-31T04:10:07.203Z,14.40
2018-05-31T04:12:36.785Z,14.40
2018-05-31T04:15:06.284Z,14.50
2018-05-31T04:17:35.067Z,14.50
2018-05-31T04:20:03.865Z,14.60
2018-05-31T04:22:32.689Z,14.70
2018-05-31T04:25:01.474Z,14.80
2018-05-31T04:27:30.317Z,14.80
2018-05-31T04:29:58.905Z,14.80
2018-05-31T04:32:27.717Z,14.90
2018-05-31T04:34:56.540Z,14.80
2018-05-31T04:37:25.280Z,14.80
2018-05-31T04:39:55.644Z,14.90
2018-05-31T04:42:25.683Z,14.80
2018-05-31T04:44:54.656Z,14.90
2018-05-31T04:47:23.210Z,14.80
2018-05-31T04:49:51.911Z,14.90
2018-05-31T04:52:20.468Z,14.90
2018-05-31T04:54:49.200Z,14.80
2018-05-31T04:57:18.678Z,14.60
2018-05-31T04:59:47.277Z,14.60
2018-05-31T05:02:16.004Z,14.70
2018-05-31T05:04:46.857Z,14.70
2018-05-31T05:07:15.508Z,14.90
2018-05-31T05:09:44.739Z,15.10
2018-05-31T05:12:14.192Z,15.30
2018-05-31T05:14:44.197Z,15.40
2018-05-31T05:17:13.748Z,15.60
2018-05-31T05:19:42.299Z,15.60
2018-05-31T05:22:11.496Z,15.60
2018-05-31T05:24:40.362Z,15.70
2018-05-31T05:27:09.835Z,15.70
2018-05-31T05:29:39.053Z,15.70
2018-05-31T05:32:07.864Z,15.80
2018-05-31T05:34:36.691Z,16.00
2018-05-31T05:37:05.549Z,16.10
2018-05-31T05:39:34.316Z,16.40
2018-05-31T05:42:03.515Z,16.60
2018-05-31T05:44:33.440Z,16.70
2018-05-31T05:47:02.780Z,16.90
2018-05-31T05:49:31.465Z,17.00
2018-05-31T05:52:00.398Z,17.20
2018-05-31T05:54:28.952Z,17.40
2018-05-31T05:56:58.634Z,17.70
2018-05-31T05:59:27.210Z,17.70
2018-05-31T06:01:56.019Z,18.00
2018-05-31T06:04:24.618Z,18.00
2018-05-31T06:06:54.190Z,18.20
2018-05-31T06:09:22.990Z,18.40
2018-05-31T06:11:52.104Z,18.60
2018-05-31T06:14:21.976Z,18.70
2018-05-31T06:16:51.776Z,19.30
2018-05-31T06:19:20.788Z,19.30
2018-05-31T06:21:50.589Z,19.80
2018-05-31T06:24:19.305Z,20.30
2018-05-31T06:26:48.111Z,20.60
2018-05-31T06:29:17.562Z,21.20
2018-05-31T06:31:46.240Z,21.40
2018-05-31T06:34:14.842Z,21.40
2018-05-31T06:36:43.457Z,21.20
2018-05-31T06:39:13.121Z,22.20
2018-05-31T06:41:43.092Z,22.20
2018-05-31T06:44:12.208Z,23.00
2018-05-31T06:46:42.162Z,23.40
2018-05-31T06:49:11.578Z,23.90
2018-05-31T06:51:41.007Z,24.00
2018-05-31T06:54:10.566Z,24.10
2018-05-31T06:56:39.383Z,24.10
2018-05-31T06:59:08.004Z,24.30
2018-05-31T07:01:37.614Z,24.30
2018-05-31T07:04:06.433Z,24.20
2018-05-31T07:06:35.143Z,24.60
2018-05-31T07:09:04.055Z,24.60
2018-05-31T07:11:33.168Z,24.50
2018-05-31T07:14:03.363Z,24.60
2018-05-31T07:16:33.037Z,25.50
2018-05-31T07:19:03.976Z,25.40
2018-05-31T07:21:36.253Z,25.80
2018-05-31T07:24:05.816Z,26.40
2018-05-31T07:26:35.048Z,26.40
2018-05-31T07:29:04.540Z,26.50
2018-05-31T07:31:33.265Z,27.00
2018-05-31T07:34:02.057Z,26.50
2018-05-31T07:36:31.770Z,26.00
2018-05-31T07:39:01.520Z,26.80
2018-05-31T07:41:30.597Z,26.80
2018-05-31T07:43:59.567Z,27.30
2018-05-31T07:46:29.617Z,27.40
2018-05-31T07:48:58.714Z,27.10
2018-05-31T07:51:27.742Z,27.10
2018-05-31T07:53:56.952Z,27.60
2018-05-31T07:56:25.711Z,27.90
2018-05-31T07:58:55.187Z,28.10
2018-05-31T08:01:24.105Z,28.10
2018-05-31T08:03:53.016Z,28.10
2018-05-31T08:06:22.244Z,28.30
2018-05-31T08:08:52.016Z,28.60
2018-05-31T08:11:22.032Z,28.70
2018-05-31T08:13:51.635Z,28.70
2018-05-31T08:16:20.446Z,29.30
2018-05-31T08:18:50.083Z,28.40
2018-05-31T08:21:18.882Z,29.00
2018-05-31T08:23:49.328Z,29.30
2018-05-31T08:26:17.934Z,29.30
2018-05-31T08:28:47.601Z,29.30
2018-05-31T08:31:16.477Z,28.30
2018-05-31T08:33:45.252Z,27.50
2018-05-31T08:36:15.755Z,28.60
2018-05-31T08:38:44.955Z,28.60
2018-05-31T08:41:13.828Z,28.90
2018-05-31T08:43:43.597Z,28.30
2018-05-31T08:46:13.713Z,28.30
2018-05-31T08:48:43.308Z,29.10
2018-05-31T08:51:12.184Z,29.10
2018-05-31T08:53:41.089Z,29.90
2018-05-31T08:56:10.012Z,30.70
2018-05-31T08:58:38.872Z,31.40
2018-05-31T09:01:08.340Z,30.30
2018-05-31T09:03:37.154Z,30.30
2018-05-31T09:06:06.702Z,29.00
2018-05-31T09:08:37.354Z,29.20
2018-05-31T09:11:06.343Z,29.50
2018-05-31T09:13:35.637Z,30.00
2018-05-31T09:16:05.454Z,31.50
2018-05-31T09:18:35.066Z,29.80
2018-05-31T09:21:03.933Z,29.70
2018-05-31T09:23:32.837Z,30.10
2018-05-31T09:26:01.981Z,30.00
2018-05-31T09:28:31.658Z,29.70
2018-05-31T09:31:00.917Z,29.30
2018-05-31T09:33:30.377Z,30.10
2018-05-31T09:35:59.815Z,30.60
2018-05-31T09:38:29.185Z,31.70
2018-05-31T09:40:58.884Z,31.90
2018-05-31T09:43:28.397Z,32.40
2018-05-31T09:45:57.142Z,32.30
2018-05-31T09:48:26.862Z,32.60
2018-05-31T09:50:55.488Z,32.80
2018-05-31T09:53:24.651Z,33.00
2018-05-31T09:55:53.988Z,32.60
2018-05-31T09:58:24.621Z,33.40
2018-05-31T10:00:55.027Z,33.40
2018-05-31T10:03:24.825Z,33.70
2018-05-31T10:05:54.329Z,33.40
2018-05-31T10:08:24.743Z,32.40
2018-05-31T10:10:53.574Z,32.40
2018-05-31T10:13:22.365Z,31.70
2018-05-31T10:15:51.163Z,32.30
2018-05-31T10:18:20.106Z,32.60
2018-05-31T10:20:49.740Z,31.70
2018-05-31T10:23:18.867Z,31.70
2018-05-31T10:25:48.092Z,31.60
2018-05-31T10:28:17.668Z,30.30
2018-05-31T10:30:46.991Z,30.20
2018-05-31T10:33:16.445Z,30.90
2018-05-31T10:35:45.618Z,31.60
2018-05-31T10:38:14.285Z,32.00
2018-05-31T10:40:43.859Z,32.30
2018-05-31T10:43:14.314Z,33.00
2018-05-31T10:45:43.027Z,30.90
2018-05-31T10:48:12.767Z,30.30
2018-05-31T10:50:42.380Z,30.50
2018-05-31T10:53:11.906Z,30.60
2018-05-31T10:55:42.091Z,31.20
2018-05-31T10:58:13.519Z,31.90
2018-05-31T11:00:42.990Z,31.20
2018-05-31T11:03:11.795Z,30.40
2018-05-31T11:05:40.569Z,30.20
2018-05-31T11:08:09.375Z,30.30
2018-05-31T11:10:38.091Z,29.80
2018-05-31T11:13:06.962Z,30.10
2018-05-31T11:15:37.577Z,31.70
2018-05-31T11:18:06.353Z,31.70
2018-05-31T11:20:35.028Z,30.60
2018-05-31T11:23:05.092Z,32.00
2018-05-31T11:25:33.829Z,32.00
2018-05-31T11:28:02.945Z,32.30
2018-05-31T11:30:32.260Z,30.50
2018-05-31T11:33:01.575Z,31.50
2018-05-31T11:35:30.586Z,31.30
2018-05-31T11:37:59.555Z,31.60
2018-05-31T11:40:29.386Z,31.10
2018-05-31T11:42:59.166Z,30.90
2018-05-31T11:45:27.896Z,30.80
2018-05-31T11:47:57.384Z,30.20
2018-05-31T11:50:26.304Z,30.50
2018-05-31T11:52:56.990Z,31.00
2018-05-31T11:55:25.754Z,31.30
2018-05-31T11:57:56.125Z,31.30
2018-05-31T12:00:25.678Z,31.60
2018-05-31T12:02:54.515Z,31.50
2018-05-31T12:05:23.980Z,30.90
2018-05-31T12:07:52.843Z,30.90
2018-05-31T12:10:23.520Z,32.70
2018-05-31T12:12:53.653Z,31.50
2018-05-31T12:15:23.307Z,32.20
2018-05-31T12:17:52.375Z,32.20
2018-05-31T12:20:21.442Z,33.00
2018-05-31T12:22:51.215Z,33.20
2018-05-31T12:25:21.401Z,33.00
2018-05-31T12:27:50.748Z,33.00
2018-05-31T12:30:20.609Z,33.50
2018-05-31T12:32:49.995Z,33.80
2018-05-31T12:35:18.811Z,34.20
2018-05-31T12:37:47.710Z,34.70
2018-05-31T12:40:17.889Z,35.30
2018-05-31T12:42:47.751Z,33.00
2018-05-31T12:45:17.367Z,32.20
2018-05-31T12:47:46.134Z,32.20
2018-05-31T12:50:15.525Z,32.40
2018-05-31T12:52:46.607Z,32.40
2018-05-31T12:55:16.580Z,32.40
2018-05-31T12:57:45.393Z,32.20
2018-05-31T13:00:14.993Z,31.90
2018-05-31T13:02:43.965Z,32.10
2018-05-31T13:05:12.747Z,31.50
2018-05-31T13:07:41.523Z,30.90
2018-05-31T13:10:11.559Z,31.70
2018-05-31T13:12:40.340Z,31.80
2018-05-31T13:15:10.475Z,31.90
2018-05-31T13:17:41.194Z,32.10
2018-05-31T13:20:11.208Z,32.10
2018-05-31T13:22:40.865Z,31.20
2018-05-31T13:25:09.970Z,31.70
2018-05-31T13:27:38.859Z,32.30
2018-05-31T13:30:08.835Z,33.20
2018-05-31T13:32:37.609Z,33.70
2018-05-31T13:35:06.516Z,33.90
2018-05-31T13:37:35.127Z,33.60
2018-05-31T13:40:03.805Z,34.30
2018-05-31T13:42:35.169Z,34.00
2018-05-31T13:45:04.740Z,34.00
2018-05-31T13:47:33.755Z,33.60
2018-05-31T13:50:03.018Z,32.20
2018-05-31T13:52:33.496Z,32.10
2018-05-31T13:55:02.421Z,32.00
2018-05-31T13:57:31.938Z,32.50
2018-05-31T14:00:01.789Z,31.40
2018-05-31T14:02:30.548Z,32.00
2018-05-31T14:04:59.311Z,31.40
2018-05-31T14:07:28.199Z,31.00
2018-05-31T14:09:57.077Z,29.90
2018-05-31T14:12:25.889Z,30.40
2018-05-31T14:14:55.258Z,30.10
2018-05-31T14:17:24.171Z,29.50
2018-05-31T14:19:59.533Z,29.90
2018-05-31T14:22:28.319Z,30.60
2018-05-31T14:24:58.079Z,31.60
2018-05-31T14:27:27.135Z,31.80
2018-05-31T14:29:56.571Z,31.20
2018-05-31T14:32:26.867Z,30.20
2018-05-31T14:34:56.412Z,30.20
2018-05-31T14:37:25.303Z,30.10
2018-05-31T14:39:54.227Z,29.80
2018-05-31T14:42:23.055Z,29.20
2018-05-31T14:44:53.166Z,29.10
2018-05-31T14:47:23.823Z,29.10
2018-05-31T14:49:53.115Z,29.00
2018-05-31T14:52:22.635Z,29.20
2018-05-31T14:54:52.648Z,29.80
2018-05-31T14:57:24.458Z,29.10
2018-05-31T14:59:54.374Z,29.10
2018-05-31T15:02:24.115Z,28.80
2018-05-31T15:04:52.964Z,28.80
2018-05-31T15:07:22.105Z,28.50
2018-05-31T15:09:52.607Z,28.80
2018-05-31T15:12:22.728Z,28.80
2018-05-31T15:14:52.590Z,28.80
2018-05-31T15:17:21.459Z,29.00
2018-05-31T15:19:51.169Z,29.40
2018-05-31T15:22:21.175Z,29.00
2018-05-31T15:24:50.558Z,28.90
2018-05-31T15:27:21.036Z,28.40
2018-05-31T15:29:51.595Z,28.30
2018-05-31T15:32:20.330Z,28.30
2018-05-31T15:34:49.168Z,28.40
2018-05-31T15:37:19.589Z,28.20
2018-05-31T15:39:49.789Z,28.20
2018-05-31T15:42:18.652Z,28.20
2018-05-31T15:44:48.924Z,28.20
2018-05-31T15:47:18.085Z,28.20
2018-05-31T15:49:47.080Z,28.60
2018-05-31T15:52:17.006Z,28.40
2018-05-31T15:54:45.820Z,28.40
2018-05-31T15:57:16.227Z,28.60
2018-05-31T15:59:45.781Z,28.20
2018-05-31T16:02:15.053Z,28.20
2018-05-31T16:04:45.034Z,28.10
2018-05-31T16:07:14.844Z,27.90
2018-05-31T16:09:45.486Z,27.60
2018-05-31T16:12:15.425Z,27.50
2018-05-31T16:14:45.000Z,27.40
2018-05-31T16:17:14.245Z,27.30
2018-05-31T16:19:43.528Z,27.40
2018-05-31T16:22:12.426Z,27.20
2018-05-31T16:24:41.927Z,27.20
2018-05-31T16:27:12.453Z,27.20
2018-05-31T16:29:41.897Z,27.10
2018-05-31T16:32:12.952Z,26.90
2018-05-31T16:34:43.264Z,26.90
2018-05-31T16:37:12.617Z,26.80
2018-05-31T16:39:42.334Z,26.90
2018-05-31T16:42:11.810Z,26.70
2018-05-31T16:44:40.903Z,26.80
2018-05-31T16:47:12.781Z,26.80
2018-05-31T16:49:41.644Z,26.80
2018-05-31T16:52:10.908Z,26.70
2018-05-31T16:54:40.000Z,26.40
2018-05-31T16:57:09.055Z,26.20
2018-05-31T16:59:39.293Z,26.10
2018-05-31T17:02:08.901Z,25.90
2018-05-31T17:04:38.422Z,25.90
2018-05-31T17:07:07.578Z,25.90
2018-05-31T17:09:37.120Z,25.70
2018-05-31T17:12:06.865Z,25.70
2018-05-31T17:14:38.788Z,25.60
2018-05-31T17:17:07.723Z,25.50
2018-05-31T17:19:37.586Z,25.60
2018-05-31T17:22:08.082Z,25.60
2018-05-31T17:24:38.187Z,25.40
2018-05-31T17:27:07.675Z,25.30
2018-05-31T17:29:36.785Z,25.40
2018-05-31T17:32:06.376Z,25.50
2018-05-31T17:34:35.670Z,25.40
2018-05-31T17:37:04.608Z,25.40
2018-05-31T17:39:33.779Z,25.60
2018-05-31T17:42:02.508Z,25.70
2018-05-31T17:44:31.430Z,25.80
2018-05-31T17:47:00.491Z,25.70
2018-05-31T17:49:30.217Z,25.70
2018-05-31T17:51:59.394Z,25.70
2018-05-31T17:54:29.045Z,25.60
2018-05-31T17:56:58.320Z,25.40
2018-05-31T17:59:28.231Z,25.50
2018-05-31T18:01:57.806Z,25.40
2018-05-31T18:04:26.717Z,25.40
2018-05-31T18:06:55.474Z,25.30
2018-05-31T18:09:24.491Z,25.30
2018-05-31T18:11:53.452Z,25.30
2018-05-31T18:14:23.445Z,25.20
2018-05-31T18:16:53.352Z,25.20
2018-05-31T18:19:22.871Z,25.20
2018-05-31T18:21:53.208Z,25.10
2018-05-31T18:24:22.940Z,24.90
2018-05-31T18:26:51.805Z,24.90
2018-05-31T18:29:21.664Z,24.90
2018-05-31T18:31:51.300Z,24.90
2018-05-31T18:34:20.974Z,24.90
2018-05-31T18:36:50.056Z,24.90
2018-05-31T18:39:18.945Z,24.80
2018-05-31T18:41:47.883Z,24.70
2018-05-31T18:44:16.738Z,24.70
2018-05-31T18:46:45.600Z,24.60
2018-05-31T18:49:16.070Z,24.50
2018-05-31T18:51:46.429Z,24.40
2018-05-31T18:54:15.482Z,24.40
2018-05-31T18:56:44.202Z,24.30
2018-05-31T18:59:13.360Z,24.20
2018-05-31T19:01:42.944Z,23.70
2018-05-31T19:04:12.627Z,23.70
2018-05-31T19:06:41.399Z,23.40
2018-05-31T19:09:15.598Z,23.20
2018-05-31T19:11:45.463Z,22.80
2018-05-31T19:14:14.776Z,22.80
2018-05-31T19:16:44.479Z,22.80
2018-05-31T19:19:19.459Z,22.70
2018-05-31T19:21:48.279Z,22.40
2018-05-31T19:24:22.747Z,22.10
2018-05-31T19:26:51.892Z,22.10
2018-05-31T19:29:21.180Z,22.00
2018-05-31T19:31:50.267Z,22.00
2018-05-31T19:34:20.217Z,22.00
2018-05-31T19:36:54.915Z,22.00
2018-05-31T19:39:23.625Z,22.00
2018-05-31T19:41:52.289Z,22.00
2018-05-31T19:44:26.751Z,22.00
2018-05-31T19:46:58.963Z,21.90
2018-05-31T19:49:29.118Z,21.90
2018-05-31T19:52:04.677Z,21.80
2018-05-31T19:54:34.709Z,21.80
2018-05-31T19:57:03.729Z,21.90
2018-05-31T19:59:38.061Z,21.80
2018-05-31T20:02:13.670Z,21.80
2018-05-31T20:04:42.640Z,21.80
2018-05-31T20:07:11.550Z,21.70
2018-05-31T20:09:41.665Z,21.80
2018-05-31T20:12:11.015Z,21.70
2018-05-31T20:14:40.379Z,21.70
2018-05-31T20:17:09.355Z,21.50
2018-05-31T20:19:38.368Z,21.50
2018-05-31T20:22:07.322Z,21.40
2018-05-31T20:24:36.614Z,21.40
2018-05-31T20:27:05.510Z,21.50
2018-05-31T20:29:35.073Z,21.40
2018-05-31T20:32:03.956Z,21.40
2018-05-31T20:34:33.016Z,21.30
2018-05-31T20:37:02.058Z,21.30
2018-05-31T20:39:31.007Z,21.10
2018-05-31T20:42:00.546Z,21.10
2018-05-31T20:44:30.467Z,21.00
2018-05-31T20:46:59.429Z,20.90
2018-05-31T20:49:29.382Z,20.90
2018-05-31T20:51:58.924Z,20.80
2018-05-31T20:54:28.060Z,20.90
2018-05-31T20:56:57.551Z,20.80
2018-05-31T20:59:27.663Z,20.70
2018-05-31T21:01:56.976Z,20.70
2018-05-31T21:04:26.033Z,20.60
2018-05-31T21:06:56.300Z,20.60
2018-05-31T21:09:25.735Z,20.50
2018-05-31T21:11:55.939Z,20.40
2018-05-31T21:14:25.289Z,20.40
2018-05-31T21:16:54.296Z,20.40
2018-05-31T21:19:23.339Z,20.40
2018-05-31T21:21:53.054Z,20.30
2018-05-31T21:24:23.214Z,20.30
2018-05-31T21:26:52.289Z,20.30
2018-05-31T21:29:21.009Z,20.30
2018-05-31T21:31:50.092Z,20.20
2018-05-31T21:34:18.865Z,20.20
2018-05-31T21:36:48.976Z,20.10
2018-05-31T21:39:18.962Z,20.10
2018-05-31T21:41:48.868Z,20.00
2018-05-31T21:44:18.082Z,20.00
2018-05-31T21:46:46.758Z,20.00
2018-05-31T21:49:16.827Z,20.00
2018-05-31T21:51:45.616Z,20.00
2018-05-31T21:54:14.441Z,19.90
2018-05-31T21:56:43.493Z,19.90
2018-05-31T21:59:13.539Z,19.90
2018-05-31T22:01:42.305Z,19.80
2018-05-31T22:04:12.153Z,19.70
2018-05-31T22:06:42.323Z,19.50
2018-05-31T22:09:12.552Z,19.30
2018-05-31T22:11:41.715Z,19.30
2018-05-31T22:14:10.531Z,19.30
2018-05-31T22:16:39.766Z,19.30
2018-05-31T22:19:08.574Z,19.30
2018-05-31T22:21:37.838Z,19.30
2018-05-31T22:24:06.770Z,19.30
2018-05-31T22:26:36.602Z,19.30
2018-05-31T22:29:06.662Z,19.30
2018-05-31T22:31:35.597Z,19.30
2018-05-31T22:34:05.790Z,19.30
2018-05-31T22:36:36.765Z,19.30
2018-05-31T22:39:06.331Z,19.20
2018-05-31T22:41:35.133Z,19.20
2018-05-31T22:44:03.804Z,19.20
2018-05-31T22:46:33.566Z,19.10
2018-05-31T22:49:02.359Z,19.10
2018-05-31T22:51:32.254Z,19.10
2018-05-31T22:54:02.051Z,19.00
2018-05-31T22:56:30.855Z,18.90
2018-05-31T22:58:59.564Z,18.80
2018-05-31T23:01:28.243Z,18.70
2018-05-31T23:03:58.689Z,18.70
2018-05-31T23:06:28.762Z,18.70
2018-05-31T23:08:57.566Z,18.70
2018-05-31T23:11:26.369Z,18.70
2018-05-31T23:13:55.184Z,18.60
2018-05-31T23:16:24.775Z,18.60
2018-05-31T23:18:53.623Z,18.50
2018-05-31T23:21:22.391Z,18.50
2018-05-31T23:23:52.163Z,18.30
2018-05-31T23:26:20.975Z,18.30
2018-05-31T23:28:50.274Z,18.30
2018-05-31T23:31:19.821Z,18.10
2018-05-31T23:33:49.633Z,18.10
2018-05-31T23:36:19.108Z,18.10
2018-05-31T23:38:47.891Z,18.00
2018-05-31T23:41:16.433Z,18.00
2018-05-31T23:43:45.203Z,17.90
2018-05-31T23:46:14.320Z,18.00
2018-05-31T23:48:43.099Z,17.90
2018-05-31T23:51:12.553Z,17.80
2018-05-31T23:53:41.339Z,17.80
2018-05-31T23:56:10.720Z,17.70
2018-05-31T23:58:39.495Z,17.60
